Terminal Aerodrome Forecast
Issued by NWS Quad Cities IA IL

Home | Current Version | Previous Version | Text Only | Print | Product List | Glossary On
Versions: 1 2 3 4 5 6 7 8 9 10 11 12 13 14 15 16 17 18 19 20 21 22 23
700
FTUS43 KDVN 220645 AAA
TAFMLI
TAF AMD
KMLI 220645Z 2207/2306 23012G20KT P6SM -RA SCT050 OVC120
     FM220800 24011KT P6SM -SHRA BKN050
     FM221100 27007KT P6SM SCT015 BKN025
     FM221400 31011KT P6SM BKN040
     FM221700 33015G22KT P6SM SCT040
     FM230000 31007KT P6SM SKC=

USA.gov is the U.S. government's official web portal to all federal, state and local government web resources and services.